• Join FlightAware (Why Join?)
  • Login
  • US Flag 
06:59PM EDT


 

Airport Tracker/Info


-or-


 

Live Flight TrackerFlight Track Log ✈ N830W ✈ 20-Oct-2013 ✈ KOXC - KROC

Flight Track Log - Related Links

Times and Time Zones

All times are in EDT time to prevent confusion due to time zone crossing. See the N830W flight status page for this flight to view local times or setup timezone preferences in your user account.

Time Position Orientation Groundspeed Altitude Reporting Facility
EDT Latitude Longitude Course Direction KTS MPH feet Rate Location/Type
11:13AM 41.4378 -73.3264 298° West 103 119 6,400  Level Boston Center
11:14AM 41.4483 -73.3628 291° West 102 117 6,600 60 Climbing Boston Center
11:15AM 41.4617 -73.3928 301° West 97 112 6,600  Level Boston Center
11:16AM 41.4750 -73.4250 299° West 99 114 6,600  Level Boston Center
11:17AM 41.4894 -73.4575 301° West 94 108 6,600 120 Level Boston Center
11:18AM 41.5435 -73.3017 298° West  Level Estimated
11:18AM 41.5031 -73.4906 299° West 99 114 6,900  Level Boston Center
11:19AM 41.5150 -73.5194 299° West 91 105 7,300 120 Climbing Boston Center
11:20AM 41.5269 -73.5542 295° West 95 109 7,200 -60 Descending Boston Center
11:21AM 41.5358 -73.5847 291° West 89 102 7,200 60 Level Boston Center
11:22AM 41.5472 -73.6142 297° West 91 105 7,400 120 Climbing Boston Center
11:23AM 41.5608 -73.6489 298° West 97 112 7,500  Climbing Boston Center
11:24AM 41.5717 -73.6797 295° West 93 107 7,400  Descending Boston Center
11:25AM 41.5822 -73.7097 295° West 90 104 7,500 60 Climbing Boston Center
11:26AM 41.5950 -73.7425 298° West 93 107 7,600  Climbing Boston Center
11:27AM 41.6053 -73.7739 294° West 92 106 7,600 -120 Level Boston Center
11:28AM 41.6161 -73.8039 296° West 90 104 7,400  Descending Boston Center
11:29AM 41.6292 -73.8364 298° West 93 107 7,700 120 Climbing Boston Center
11:30AM 41.6414 -73.8689 297° West 97 112 7,700 -60 Level Boston Center
11:31AM 41.6528 -73.9003 296° West 95 109 7,600  Descending Boston Center
11:32AM 41.6658 -73.9333 298° West 95 109 7,800  Climbing Boston Center
11:33AM 41.6789 -73.9653 299° West 98 113 7,700 -120 Descending Boston Center
11:34AM 41.6886 -73.9983 292° West 95 109 7,600  Descending Boston Center
11:35AM 41.7033 -74.0319 300° West 98 113 7,800  Climbing Boston Center
11:36AM 41.7156 -74.0650 296° West 99 114 7,700 -120 Descending Boston Center
11:37AM 41.7278 -74.0969 297° West 97 112 7,600  Descending Boston Center
11:38AM 41.7419 -74.1311 299° West 99 114 7,800 60 Climbing Boston Center
11:39AM 41.7550 -74.1644 298° West 100 115 7,800  Level Boston Center
11:40AM 41.7672 -74.1969 297° West 99 114 7,800 -120 Level Boston Center
11:41AM 41.7772 -74.2336 290° West 98 113 7,600 -120 Descending Boston Center
11:42AM 41.7875 -74.2667 293° West 96 110 7,600 60 Level Boston Center
11:43AM 41.8000 -74.2975 299° West 94 108 7,800  Climbing Boston Center
11:45AM 41.8122 -74.3294 297° West 91 105 7,700 -60 Descending Boston Center
11:46AM 41.8228 -74.3600 295° West 91 105 7,700  Level Boston Center
11:47AM 41.8339 -74.3903 296° West 92 106 7,700  Level Boston Center
11:48AM 41.8439 -74.4233 292° West 89 102 7,800  Climbing Boston Center
11:49AM 41.8533 -74.4528 293° West 87 100 7,700  Descending Boston Center
11:50AM 41.8642 -74.4828 296° West 89 102 7,800  Climbing Boston Center
11:51AM 41.8775 -74.5144 299° West 90 104 7,700 -60 Descending Boston Center
11:52AM 41.8886 -74.5453 296° West 91 105 7,700  Level Boston Center
11:53AM 41.9003 -74.5747 298° West 90 104 7,800  Climbing Boston Center
11:54AM 41.9122 -74.6056 298° West 87 100 7,800  Level Boston Center
11:55AM 41.9242 -74.6342 299° West 87 100 7,900  Climbing Boston Center
11:56AM 41.9361 -74.6631 299° West 89 102 7,800 -60 Descending Boston Center
11:57AM 41.9486 -74.6956 297° West 92 106 7,800  Level Boston Center
11:58AM 41.9619 -74.7222 304° West 88 101 7,800  Level Boston Center
11:59AM 41.9725 -74.7525 295° West 89 102 7,800  Level Boston Center
12:00PM 41.9856 -74.7856 298° West 92 106 7,800 -60 Level Boston Center
12:01PM 41.9972 -74.8150 298° West 93 107 7,700  Descending Boston Center
12:02PM 42.0122 -74.8442 305° West 95 109 7,800 120 Climbing Boston Center
12:03PM 42.0286 -74.8733 307° West 92 106 8,000  Climbing Boston Center
12:04PM 42.0450 -74.8992 311° West 90 104 7,900  Descending Boston Center
12:05PM 42.0608 -74.9269 308° West 92 106 8,100 60 Climbing Boston Center
12:06PM 42.0772 -74.9467 318° Northwest 84 97 8,100  Level Boston Center
12:07PM 42.0928 -74.9758 306° West 91 105 8,200  Climbing Boston Center
12:08PM 42.1022 -75.0064 293° West 89 102 8,200 -540 Level Boston Center
12:09PM 42.1311 -75.0189 342° North 111 128 7,100 -1,200 Descending Boston Center
12:10PM 42.1600 -75.0167 North 118 136 5,800 -1,140 Descending Boston Center
12:11PM 42.1694 -75.0425 296° West 115 132 5,000 -660 Descending Boston Center
12:12PM 42.1822 -75.0822 293° West 102 117 4,600 -240 Descending Boston Center
12:13PM 42.1944 -75.1183 295° West 101 116 4,600  Level Boston Center
12:14PM 42.2056 -75.1586 290° West 107 123 4,600 -120 Level Boston Center
12:15PM 42.2169 -75.1892 297° West 103 119 4,400  Descending Boston Center
12:16PM 42.2317 -75.2242 300° West 106 122 4,600 60 Climbing Boston Center
12:17PM 42.2458 -75.2594 298° West 106 122 4,600  Level Boston Center
12:18PM 42.2569 -75.2956 293° West 106 122 4,600 -60 Level Boston Center
12:19PM 42.2678 -75.3303 293° West 103 119 4,500 -60 Descending Boston Center
12:20PM 42.2825 -75.3733 295° West 104 120 4,500  Level Boston Center
12:21PM 42.2931 -75.4092 292° West 104 120 4,600 60 Climbing Boston Center
12:22PM 42.3031 -75.4464 290° West 103 119 4,700 -60 Climbing Boston Center
12:23PM 42.3125 -75.4844 289° West 105 121 4,500 -120 Descending Boston Center
12:24PM 42.3239 -75.5222 292° West 108 124 4,500  Level Boston Center
12:25PM 42.3364 -75.5561 297° West 105 121 4,500 -120 Level Boston Center
12:26PM 42.3486 -75.5947 293° West 108 124 4,300 -180 Descending Boston Center
12:27PM 42.3619 -75.6392 292° West 118 136 4,200 -60 Descending Boston Center
12:28PM 42.3764 -75.6847 293° West 127 146 4,200 60 Level Boston Center
12:29PM 42.3908 -75.7286 294° West 115 132 4,400 60 Climbing Boston Center
12:30PM 42.3992 -75.7611 289° West 101 116 4,400  Level Boston Center
12:31PM 42.4092 -75.7964 291° West 99 114 4,400  Level Boston Center
12:32PM 42.4200 -75.8339 291° West 105 121 4,400  Level Boston Center
12:33PM 42.4306 -75.8708 291° West 106 122 4,400 -60 Level Boston Center
12:35PM 42.4439 -75.9117 294° West 112 129 4,300  Descending Boston Center
12:36PM 42.4547 -75.9514 290° West 114 131 4,400 -60 Climbing Boston Center
12:37PM 42.4675 -75.9856 297° West 107 123 4,200 -120 Descending Boston Center
12:38PM 42.4836 -76.0294 296° West 108 124 4,200  Level Boston Center
12:39PM 42.5000 -76.0653 302° West 110 127 4,200 -60 Level Boston Center
12:40PM 42.5139 -76.1025 297° West 111 128 4,100 -180 Descending Boston Center
12:41PM 42.5297 -76.1364 302° West 109 125 3,900 -120 Descending Boston Center
12:42PM 42.5442 -76.1750 297° West 112 129 3,900  Level Boston Center
12:43PM 42.5567 -76.2100 296° West 108 124 3,900  Level Boston Center
12:44PM 42.5703 -76.2467 297° West 108 124 4,000  Climbing Boston Center
12:45PM 42.5833 -76.2850 295° West 110 127 4,000 -60 Level Boston Center
12:46PM 42.5969 -76.3244 295° West 113 130 3,900  Descending Boston Center
12:47PM 42.6100 -76.3694 292° West 109 125 4,000  Climbing Boston Center
12:48PM 42.6247 -76.4050 299° West 108 124 3,900 -60 Descending Boston Center
12:49PM 42.6397 -76.4414 299° West 109 125 3,900  Level Boston Center
12:50PM 42.6539 -76.4783 298° West 110 127 3,900  Level Boston Center
12:51PM 42.6694 -76.5117 302° West 106 122 3,900  Level Boston Center
12:52PM 42.6847 -76.5486 299° West 110 127 4,000  Climbing Boston Center
12:53PM 42.7008 -76.5814 304° West 106 122 4,000 -60 Level Boston Center
12:54PM 42.7131 -76.6194 294° West 109 125 3,900 -60 Descending Boston Center
12:55PM 42.7289 -76.6531 303° West 107 123 3,900  Level Boston Center
12:56PM 42.7478 -76.6967 301° West 112 129 3,900 -60 Level Boston Center
12:57PM 42.7622 -76.7317 299° West 109 125 3,800 -60 Descending Boston Center
12:59PM 42.7839 -76.7903 297° West 114 131 3,800  Level Cleveland Center
01:00PM 42.7994 -76.8275 300° West 112 129 3,800  Level Cleveland Center
01:00PM 42.8003 -76.8258 56° Northeast 111 128 3,800 -240 Level Cleveland Center
01:01PM 42.8144 -76.8633 297° West 110 127 3,600  Descending Cleveland Center
01:02PM 42.8325 -76.9003 304° West 111 128 3,800 60 Climbing Cleveland Center
01:02PM 42.8308 -76.8981 136° Southeast 110 127 3,700  Descending Cleveland Center
01:03PM 42.8456 -76.9294 303° West 110 127 3,800 60 Climbing Cleveland Center
01:03PM 42.8481 -76.9333 311° West 111 128 3,800 -120 Level Cleveland Center
01:04PM 42.8658 -76.9664 306° West 111 128 3,700 -120 Descending Cleveland Center
01:04PM 42.8656 -76.9672 246° West 111 128 3,700  Level Cleveland Center
01:05PM 42.8825 -76.9992 306° West 105 121 3,700  Level Cleveland Center
01:05PM 42.8822 -76.9997 236° Southwest 108 124 3,700 -120 Level Cleveland Center
01:06PM 42.8986 -77.0378 300° West 112 129 3,600 -120 Descending Cleveland Center
01:06PM 42.8997 -77.0433 285° West 108 124 3,600 -120 Level Cleveland Center
01:07PM 42.9147 -77.0739 304° West 111 128 3,500 -120 Descending Cleveland Center
01:07PM 42.9161 -77.0783 293° West 110 127 3,500 -120 Level Cleveland Center
01:08PM 42.9314 -77.1069 306° West 108 124 3,400 -120 Descending Cleveland Center
01:08PM 42.9322 -77.1139 279° West 110 127 3,400 -120 Level Cleveland Center
01:09PM 42.9497 -77.1458 307° West 108 124 3,300 -120 Descending Cleveland Center
01:10PM 42.9661 -77.1792 304° West 108 124 3,200 -120 Descending Cleveland Center
01:10PM 42.9672 -77.1806 318° Northwest 109 125 3,200  Level Cleveland Center
01:11PM 42.9825 -77.2122 303° West 109 125 3,200  Level Cleveland Center
01:11PM 42.9864 -77.2206 303° West 107 123 3,200 -120 Level Cleveland Center
01:12PM 42.9989 -77.2483 302° West 111 128 3,100 -120 Descending Cleveland Center
01:12PM 43.0014 -77.2583 289° West 111 128 3,100 -240 Level Cleveland Center
01:13PM 43.0147 -77.2869 303° West 114 131 2,900 -240 Descending Cleveland Center
01:13PM 43.0169 -77.2956 289° West 113 130 2,900  Level Cleveland Center
01:14PM 43.0308 -77.3231 305° West 115 132 2,900 -120 Level Cleveland Center
01:14PM 43.0339 -77.3328 293° West 115 132 2,800 -240 Descending Cleveland Center
01:15PM 43.0461 -77.3647 298° West 113 130 2,700 -120 Descending Cleveland Center
01:15PM 43.0486 -77.3708 299° West 115 132 2,700 -120 Level Cleveland Center
01:16PM 43.0619 -77.4033 299° West 117 135 2,600 -120 Descending Cleveland Center
01:16PM 43.0628 -77.4097 280° West 115 132 2,600 -240 Level Cleveland Center
01:17PM 43.0733 -77.4442 293° West 114 131 2,400 -120 Descending Cleveland Center
01:17PM 43.0783 -77.4572 298° West 116 133 2,500 -300 Climbing Cleveland Center
01:18PM 43.0892 -77.4828 300° West 116 133 2,100 -600 Descending Cleveland Center
01:18PM 43.0919 -77.4964 286° West 115 132 1,900 -540 Descending Cleveland Center
01:19PM 43.1003 -77.5236 293° West 114 131 1,600 -420 Descending Cleveland Center
01:19PM 43.1033 -77.5361 289° West 114 131 1,500 -120 Descending Cleveland Center
01:20PM 43.1083 -77.5575 288° West 95 109 1,500  Level Cleveland Center
01:20PM 43.1111 -77.5692 288° West 105 121 1,500 -120 Level Cleveland Center
01:21PM 43.1150 -77.5853 288° West 78 90 1,400 -120 Descending Cleveland Center
01:21PM 43.1178 -77.5983 286° West 93 107 1,400 -120 Level Cleveland Center
01:22PM 43.1233 -77.6164 293° West 87 100 1,300 -300 Descending Cleveland Center
01:22PM 43.1281 -77.6317 293° West 85 98 1,100 -420 Descending Cleveland Center
01:23PM 43.1258 -77.6433 255° West 62 71 900 -420 Descending Cleveland Center
01:23PM 43.1217 -77.6542 242° Southwest 75 86 700 -420 Descending Cleveland Center